createdAt,value
2019-05-23T00:02:41.293Z,81.14
2019-05-23T00:05:32.889Z,81.44
2019-05-23T00:08:13.486Z,81.52
2019-05-23T00:10:52.921Z,81.89
2019-05-23T00:13:48.227Z,82.14
2019-05-23T00:16:22.758Z,82.14
2019-05-23T00:18:55.421Z,81.94
2019-05-23T00:21:27.640Z,82.36
2019-05-23T00:24:00.211Z,82.30
2019-05-23T00:26:33.908Z,82.17
2019-05-23T00:29:10.441Z,81.48
2019-05-23T00:31:49.373Z,81.79
2019-05-23T00:34:22.318Z,81.78
2019-05-23T00:36:54.561Z,81.63
2019-05-23T00:39:27.360Z,82.12
2019-05-23T00:41:59.615Z,82.56
2019-05-23T00:44:32.016Z,82.75
2019-05-23T00:47:04.690Z,83.07
2019-05-23T00:49:36.912Z,83.18
2019-05-23T00:52:09.034Z,83.04
2019-05-23T00:54:41.515Z,82.34
2019-05-23T00:57:13.494Z,82.31
2019-05-23T00:59:47.001Z,82.40
2019-05-23T01:02:19.082Z,82.45
2019-05-23T01:04:51.616Z,82.17
2019-05-23T01:07:25.297Z,81.99
2019-05-23T01:09:57.290Z,81.99
2019-05-23T01:12:30.061Z,81.75
2019-05-23T01:15:03.264Z,82.18
2019-05-23T01:17:35.577Z,82.22
2019-05-23T01:20:10.959Z,82.15
2019-05-23T01:22:44.010Z,82.99
2019-05-23T01:25:18.578Z,82.89
2019-05-23T01:27:50.713Z,83.17
2019-05-23T01:30:27.315Z,83.08
2019-05-23T01:33:00.864Z,83.40
2019-05-23T01:35:35.313Z,83.73
2019-05-23T01:38:07.281Z,83.83
2019-05-23T01:40:40.616Z,83.85
2019-05-23T01:43:13.918Z,84.48
2019-05-23T01:45:46.079Z,84.87
2019-05-23T01:48:19.157Z,84.53
2019-05-23T01:50:51.784Z,84.48
2019-05-23T01:53:24.067Z,83.83
2019-05-23T01:55:56.051Z,83.63
2019-05-23T01:58:28.438Z,83.43
2019-05-23T02:01:00.525Z,83.96
2019-05-23T02:03:32.529Z,83.62
2019-05-23T02:06:04.519Z,83.80
2019-05-23T02:08:36.502Z,83.63
2019-05-23T02:11:08.888Z,83.13
2019-05-23T02:13:41.306Z,82.89
2019-05-23T02:16:14.037Z,83.33
2019-05-23T02:18:46.907Z,83.02
2019-05-23T02:21:20.539Z,83.05
2019-05-23T02:23:53.509Z,82.75
2019-05-23T02:26:26.098Z,82.80
2019-05-23T02:28:58.106Z,82.40
2019-05-23T02:31:31.690Z,81.93
2019-05-23T02:34:04.629Z,82.95
2019-05-23T02:36:37.695Z,83.56
2019-05-23T02:39:28.187Z,83.08
2019-05-23T02:42:18.537Z,83.54
2019-05-23T02:44:51.893Z,83.71
2019-05-23T02:47:33.071Z,83.66
2019-05-23T02:50:06.349Z,83.25
2019-05-23T02:52:48.476Z,83.32
2019-05-23T02:55:24.985Z,83.13
2019-05-23T02:58:04.560Z,83.64
2019-05-23T03:00:54.153Z,83.64
2019-05-23T03:03:25.163Z,84.32
2019-05-23T03:05:59.747Z,84.33
2019-05-23T03:08:31.755Z,84.45
2019-05-23T03:11:18.396Z,84.33
2019-05-23T03:13:51.974Z,84.73
2019-05-23T03:16:26.782Z,84.29
2019-05-23T03:19:02.199Z,83.73
2019-05-23T03:21:36.081Z,82.88
2019-05-23T03:24:08.541Z,83.72
2019-05-23T03:27:14.969Z,82.63
2019-05-23T03:29:47.474Z,82.98
2019-05-23T03:32:28.039Z,83.76
2019-05-23T03:35:13.094Z,83.94
2019-05-23T03:37:46.624Z,83.69
2019-05-23T03:40:19.085Z,83.96
2019-05-23T03:42:51.474Z,84.24
2019-05-23T03:45:25.926Z,83.99
2019-05-23T03:47:57.920Z,83.94
2019-05-23T03:50:31.884Z,84.20
2019-05-23T03:53:05.665Z,83.58
2019-05-23T03:55:38.728Z,83.87
2019-05-23T03:58:12.157Z,83.96
2019-05-23T04:00:50.158Z,84.22
2019-05-23T04:03:23.652Z,84.81
2019-05-23T04:05:56.280Z,84.83
2019-05-23T04:08:29.071Z,85.14
2019-05-23T04:11:01.083Z,85.25
2019-05-23T04:13:33.548Z,84.60
2019-05-23T04:16:05.880Z,84.08
2019-05-23T04:18:38.484Z,84.36
2019-05-23T04:21:10.460Z,84.39
2019-05-23T04:23:42.466Z,84.76
2019-05-23T04:26:14.483Z,84.75
2019-05-23T04:28:46.528Z,84.31
2019-05-23T04:31:18.621Z,83.75
2019-05-23T04:33:50.849Z,83.81
2019-05-23T04:36:22.814Z,84.18
2019-05-23T04:38:55.013Z,83.44
2019-05-23T04:41:27.201Z,83.55
2019-05-23T04:43:59.250Z,83.55
2019-05-23T04:46:31.244Z,83.31
2019-05-23T04:49:03.422Z,82.93
2019-05-23T04:51:35.422Z,82.67
2019-05-23T04:54:08.198Z,82.70
2019-05-23T04:56:40.534Z,82.66
2019-05-23T04:59:12.578Z,81.43
2019-05-23T05:01:44.951Z,80.73
2019-05-23T05:04:17.235Z,80.34
2019-05-23T05:06:49.171Z,80.16
2019-05-23T05:09:27.260Z,80.25
2019-05-23T05:12:00.546Z,80.98
2019-05-23T05:14:32.746Z,80.35
2019-05-23T05:17:05.024Z,80.03
2019-05-23T05:19:36.996Z,79.28
2019-05-23T05:22:09.273Z,78.56
2019-05-23T05:24:41.293Z,77.11
2019-05-23T05:27:13.818Z,76.97
2019-05-23T05:29:45.939Z,76.59
2019-05-23T05:32:22.024Z,75.96
2019-05-23T05:34:54.044Z,73.41
2019-05-23T05:37:26.228Z,72.00
2019-05-23T05:39:58.994Z,70.60
2019-05-23T05:42:31.655Z,70.16
2019-05-23T05:45:05.499Z,69.49
2019-05-23T05:47:38.140Z,69.03
2019-05-23T05:50:11.607Z,68.56
2019-05-23T05:52:43.595Z,67.60
2019-05-23T05:55:15.557Z,65.29
2019-05-23T05:57:47.573Z,64.74
2019-05-23T06:00:38.180Z,63.69
2019-05-23T06:03:10.289Z,63.18
2019-05-23T06:06:00.441Z,61.93
2019-05-23T06:08:34.231Z,59.42
2019-05-23T06:11:06.913Z,58.00
2019-05-23T06:13:39.248Z,58.14
2019-05-23T06:16:11.679Z,58.13
2019-05-23T06:18:44.363Z,57.81
2019-05-23T06:21:21.996Z,56.36
2019-05-23T06:23:54.189Z,57.01
2019-05-23T06:26:26.229Z,57.08
2019-05-23T06:28:58.627Z,57.50
2019-05-23T06:31:31.228Z,56.51
2019-05-23T06:34:04.115Z,55.73
2019-05-23T06:36:36.181Z,53.69
2019-05-23T06:39:08.616Z,53.05
2019-05-23T06:41:40.884Z,53.22
2019-05-23T06:44:13.479Z,54.58
2019-05-23T06:46:45.762Z,52.61
2019-05-23T06:49:17.910Z,51.30
2019-05-23T06:51:49.871Z,50.24
2019-05-23T06:54:21.913Z,49.89
2019-05-23T06:56:53.932Z,49.63
2019-05-23T06:59:25.919Z,49.52
2019-05-23T07:01:58.319Z,49.15
2019-05-23T07:04:30.975Z,49.72
2019-05-23T07:07:03.631Z,48.52
2019-05-23T07:09:35.658Z,47.54
2019-05-23T07:12:08.015Z,47.74
2019-05-23T07:14:40.177Z,46.81
2019-05-23T07:17:13.841Z,46.13
2019-05-23T07:19:46.019Z,45.54
2019-05-23T07:22:19.405Z,45.06
2019-05-23T07:24:58.025Z,44.99
2019-05-23T07:27:26.601Z,44.17
2019-05-23T07:29:58.758Z,43.50
2019-05-23T07:32:30.918Z,42.91
2019-05-23T07:35:03.103Z,42.36
2019-05-23T07:37:35.302Z,42.12
2019-05-23T07:40:07.331Z,41.34
2019-05-23T07:42:39.321Z,38.89
2019-05-23T07:45:16.915Z,39.02
2019-05-23T07:47:48.905Z,39.35
2019-05-23T07:50:21.303Z,38.53
2019-05-23T07:52:55.172Z,36.98
2019-05-23T07:55:36.547Z,37.32
2019-05-23T07:58:13.216Z,35.72
2019-05-23T08:00:49.874Z,35.65
2019-05-23T08:03:24.862Z,35.65
2019-05-23T08:05:57.301Z,35.31
2019-05-23T08:08:29.667Z,36.01
2019-05-23T08:11:01.674Z,36.96
2019-05-23T08:13:35.469Z,36.62
2019-05-23T08:16:07.663Z,36.12
2019-05-23T08:18:39.618Z,36.00
2019-05-23T08:21:11.762Z,33.76
2019-05-23T08:23:43.752Z,37.14
2019-05-23T08:26:19.007Z,36.43
2019-05-23T08:29:12.720Z,36.24
2019-05-23T08:31:25.805Z,35.93
2019-05-23T08:33:58.771Z,34.94
2019-05-23T08:36:30.978Z,36.65
2019-05-23T08:39:07.522Z,33.92
2019-05-23T08:41:39.885Z,33.81
2019-05-23T08:44:11.922Z,35.12
2019-05-23T08:46:44.552Z,34.97
2019-05-23T08:49:17.270Z,34.37
2019-05-23T08:51:49.572Z,33.72
2019-05-23T08:54:21.535Z,33.34
2019-05-23T08:56:53.519Z,34.66
2019-05-23T08:59:26.642Z,34.65
2019-05-23T09:01:59.289Z,35.13
2019-05-23T09:04:31.467Z,35.83
2019-05-23T09:07:05.036Z,33.66
2019-05-23T09:09:37.654Z,35.52
2019-05-23T09:12:10.140Z,35.54
2019-05-23T09:14:42.216Z,33.79
2019-05-23T09:17:14.824Z,34.77
2019-05-23T09:19:46.824Z,35.46
2019-05-23T09:22:19.318Z,33.80
2019-05-23T09:24:51.341Z,32.83
2019-05-23T09:27:25.646Z,33.64
2019-05-23T09:29:57.657Z,33.69
2019-05-23T09:32:29.847Z,34.19
2019-05-23T09:35:19.114Z,34.70
2019-05-23T09:37:35.867Z,33.90
2019-05-23T09:40:08.144Z,35.50
2019-05-23T09:42:40.169Z,34.96
2019-05-23T09:45:12.310Z,35.84
2019-05-23T09:47:44.824Z,36.17
2019-05-23T09:50:19.664Z,34.78
2019-05-23T09:52:51.661Z,34.64
2019-05-23T09:55:24.333Z,36.45
2019-05-23T09:57:56.367Z,34.82
2019-05-23T10:00:28.743Z,36.26
2019-05-23T10:03:01.618Z,34.99
2019-05-23T10:05:42.930Z,35.44
2019-05-23T10:08:07.531Z,35.86
2019-05-23T10:10:39.999Z,36.18
2019-05-23T10:13:12.131Z,37.50
2019-05-23T10:15:59.672Z,38.28
2019-05-23T10:18:31.834Z,38.47
2019-05-23T10:21:04.354Z,36.75
2019-05-23T10:23:36.367Z,35.61
2019-05-23T10:26:09.614Z,35.14
2019-05-23T10:28:41.759Z,33.80
2019-05-23T10:31:14.237Z,34.07
2019-05-23T10:33:46.216Z,35.49
2019-05-23T10:36:18.206Z,35.84
2019-05-23T10:38:50.228Z,34.46
2019-05-23T10:41:22.186Z,35.03
2019-05-23T10:43:54.567Z,35.35
2019-05-23T10:46:27.226Z,36.08
2019-05-23T10:48:59.209Z,37.54
2019-05-23T10:51:31.229Z,34.33
2019-05-23T10:54:03.618Z,35.19
2019-05-23T10:56:36.150Z,34.93
2019-05-23T10:59:08.297Z,35.14
2019-05-23T11:01:40.895Z,35.05
2019-05-23T11:04:13.126Z,36.30
2019-05-23T11:06:45.386Z,35.66
2019-05-23T11:09:36.140Z,35.52
2019-05-23T11:11:53.210Z,35.31
2019-05-23T11:14:25.273Z,35.16
2019-05-23T11:16:57.281Z,34.98
2019-05-23T11:19:29.379Z,34.45
2019-05-23T11:22:01.430Z,33.67
2019-05-23T11:24:33.500Z,34.84
2019-05-23T11:27:05.621Z,33.94
2019-05-23T11:29:37.587Z,35.07
2019-05-23T11:32:10.314Z,34.60
2019-05-23T11:34:42.265Z,34.85
2019-05-23T11:37:14.351Z,34.31
2019-05-23T11:39:49.775Z,35.35
2019-05-23T11:42:20.761Z,35.47
2019-05-23T11:44:52.935Z,34.45
2019-05-23T11:47:25.655Z,35.81
2019-05-23T11:49:57.615Z,34.96
2019-05-23T11:52:30.267Z,35.15
2019-05-23T11:55:03.393Z,35.02
2019-05-23T11:57:37.667Z,35.92
2019-05-23T12:00:12.164Z,36.37
2019-05-23T12:02:44.471Z,38.03
2019-05-23T12:05:24.233Z,38.74
2019-05-23T12:07:56.462Z,36.22
2019-05-23T12:10:28.479Z,36.60
2019-05-23T12:13:00.503Z,35.07
2019-05-23T12:15:35.930Z,34.01
2019-05-23T12:18:08.632Z,35.46
2019-05-23T12:20:40.666Z,35.89
2019-05-23T12:23:12.905Z,35.70
2019-05-23T12:25:44.867Z,34.67
2019-05-23T12:28:17.235Z,36.23
2019-05-23T12:30:49.398Z,34.86
2019-05-23T12:33:21.428Z,35.78
2019-05-23T12:35:53.464Z,35.91
2019-05-23T12:38:25.595Z,34.74
2019-05-23T12:40:57.705Z,35.28
2019-05-23T12:43:29.762Z,35.89
2019-05-23T12:46:01.769Z,36.90
2019-05-23T12:48:58.710Z,37.63
2019-05-23T12:51:32.961Z,36.47
2019-05-23T12:54:05.017Z,35.54
2019-05-23T12:56:37.532Z,36.27
2019-05-23T12:59:10.329Z,37.15
2019-05-23T13:01:44.071Z,36.55
2019-05-23T13:04:16.848Z,37.18
2019-05-23T13:06:49.192Z,36.61
2019-05-23T13:09:21.354Z,35.50
2019-05-23T13:11:53.459Z,36.32
2019-05-23T13:14:25.564Z,36.09
2019-05-23T13:17:01.183Z,35.47
2019-05-23T13:19:33.003Z,37.12
2019-05-23T13:22:06.880Z,36.86
2019-05-23T13:24:52.115Z,37.15
2019-05-23T13:27:13.186Z,35.00
2019-05-23T13:29:45.565Z,35.44
2019-05-23T13:32:17.886Z,35.21
2019-05-23T13:34:49.876Z,35.86
2019-05-23T13:37:22.069Z,34.84
2019-05-23T13:39:54.090Z,34.89
2019-05-23T13:42:26.552Z,36.06
2019-05-23T13:44:58.998Z,35.76
2019-05-23T13:47:31.145Z,36.15
2019-05-23T13:50:03.885Z,36.79
2019-05-23T13:52:36.819Z,35.06
2019-05-23T13:55:08.868Z,35.68
2019-05-23T13:57:40.919Z,36.07
2019-05-23T14:00:14.672Z,35.74
2019-05-23T14:02:47.098Z,36.47
2019-05-23T14:05:19.631Z,35.94
2019-05-23T14:07:51.703Z,35.85
2019-05-23T14:10:23.745Z,34.73
2019-05-23T14:12:56.055Z,35.22
2019-05-23T14:15:34.364Z,35.30
2019-05-23T14:18:06.620Z,36.53
2019-05-23T14:20:38.711Z,35.74
2019-05-23T14:23:36.252Z,35.41
2019-05-23T14:26:12.509Z,36.21
2019-05-23T14:28:44.830Z,36.28
2019-05-23T14:31:22.305Z,38.30
2019-05-23T14:34:06.719Z,37.40
2019-05-23T14:36:52.397Z,35.54
2019-05-23T14:39:39.507Z,36.27
2019-05-23T14:42:29.699Z,36.51
2019-05-23T14:45:01.924Z,36.99
2019-05-23T14:47:53.598Z,36.69
2019-05-23T14:50:45.216Z,36.92
2019-05-23T14:53:20.370Z,37.52
2019-05-23T14:55:52.384Z,36.56
2019-05-23T14:58:24.710Z,36.41
2019-05-23T15:00:57.330Z,36.34
2019-05-23T15:03:29.316Z,35.96
2019-05-23T15:06:01.347Z,36.41
2019-05-23T15:08:49.679Z,36.83
2019-05-23T15:11:07.589Z,36.89
2019-05-23T15:13:39.607Z,36.83
2019-05-23T15:16:11.971Z,37.23
2019-05-23T15:18:44.008Z,36.57
2019-05-23T15:21:16.148Z,37.36
2019-05-23T15:23:48.211Z,36.90
2019-05-23T15:26:23.555Z,37.34
2019-05-23T15:28:54.174Z,36.75
2019-05-23T15:31:26.211Z,35.72
2019-05-23T15:33:58.278Z,36.68
2019-05-23T15:36:30.273Z,37.62
2019-05-23T15:39:09.394Z,37.95
2019-05-23T15:41:37.653Z,37.61
2019-05-23T15:44:24.324Z,37.77
2019-05-23T15:46:43.739Z,35.52
2019-05-23T15:49:16.029Z,35.51
2019-05-23T15:52:07.627Z,36.34
2019-05-23T15:54:47.307Z,36.51
2019-05-23T15:57:23.242Z,36.31
2019-05-23T16:00:10.364Z,37.39
2019-05-23T16:03:01.929Z,35.94
2019-05-23T16:05:33.952Z,35.64
2019-05-23T16:08:06.294Z,36.54
2019-05-23T16:10:38.780Z,36.21
2019-05-23T16:13:11.063Z,36.60
2019-05-23T16:15:43.091Z,36.89
2019-05-23T16:18:15.320Z,36.47
2019-05-23T16:20:47.463Z,36.33
2019-05-23T16:23:19.786Z,36.58
2019-05-23T16:25:51.852Z,37.19
2019-05-23T16:28:23.891Z,36.61
2019-05-23T16:30:56.117Z,37.03
2019-05-23T16:33:28.212Z,37.13
2019-05-23T16:36:00.276Z,37.75
2019-05-23T16:38:32.235Z,37.64
2019-05-23T16:41:04.293Z,38.16
2019-05-23T16:43:36.317Z,38.08
2019-05-23T16:46:08.395Z,37.04
2019-05-23T16:48:40.770Z,37.20
2019-05-23T16:51:12.845Z,37.04
2019-05-23T16:53:44.817Z,36.71
2019-05-23T16:56:28.823Z,36.78
2019-05-23T16:59:38.858Z,37.46
2019-05-23T17:02:33.211Z,37.27
2019-05-23T17:05:33.752Z,37.33
2019-05-23T17:08:31.299Z,37.82
2019-05-23T17:11:41.011Z,38.21
2019-05-23T17:14:19.048Z,37.04
2019-05-23T17:17:12.514Z,36.87
2019-05-23T17:19:55.430Z,37.41
2019-05-23T17:22:53.057Z,37.07
2019-05-23T17:25:53.107Z,37.70
2019-05-23T17:28:29.336Z,37.56
2019-05-23T17:31:04.431Z,38.29
2019-05-23T17:33:37.243Z,38.64
2019-05-23T17:36:09.695Z,38.22
2019-05-23T17:38:41.845Z,38.68
2019-05-23T17:41:13.984Z,38.75
2019-05-23T17:43:46.032Z,39.02
2019-05-23T17:46:18.166Z,39.49
2019-05-23T17:48:50.176Z,39.76
2019-05-23T17:51:23.058Z,39.42
2019-05-23T17:53:55.101Z,39.00
2019-05-23T17:56:27.275Z,39.55
2019-05-23T17:58:59.415Z,40.40
2019-05-23T18:01:31.646Z,40.49
2019-05-23T18:04:04.822Z,40.86
2019-05-23T18:06:37.317Z,40.35
2019-05-23T18:09:10.772Z,40.57
2019-05-23T18:11:43.056Z,40.88
2019-05-23T18:14:15.700Z,41.52
2019-05-23T18:16:48.053Z,41.88
2019-05-23T18:19:20.610Z,41.84
2019-05-23T18:21:53.215Z,42.38
2019-05-23T18:24:26.089Z,42.42
2019-05-23T18:26:58.276Z,43.00
2019-05-23T18:29:30.420Z,43.38
2019-05-23T18:32:05.688Z,43.96
2019-05-23T18:34:38.172Z,44.42
2019-05-23T18:37:10.287Z,45.34
2019-05-23T18:39:43.325Z,45.72
2019-05-23T18:42:16.293Z,47.21
2019-05-23T18:44:48.718Z,48.26
2019-05-23T18:47:29.743Z,49.05
2019-05-23T18:50:01.875Z,49.66
2019-05-23T18:52:34.078Z,50.14
2019-05-23T18:55:06.290Z,50.30
2019-05-23T18:57:38.406Z,50.42
2019-05-23T19:00:10.808Z,50.41
2019-05-23T19:02:42.865Z,51.39
2019-05-23T19:05:15.456Z,52.43
2019-05-23T19:07:47.765Z,53.17
2019-05-23T19:10:19.962Z,53.75
2019-05-23T19:12:52.185Z,53.88
2019-05-23T19:15:24.731Z,53.59
2019-05-23T19:17:56.865Z,54.58
2019-05-23T19:20:28.991Z,55.13
2019-05-23T19:23:01.506Z,56.35
2019-05-23T19:25:34.271Z,56.69
2019-05-23T19:28:07.101Z,56.70
2019-05-23T19:30:39.535Z,57.07
2019-05-23T19:33:11.824Z,57.45
2019-05-23T19:35:47.374Z,57.58
2019-05-23T19:38:18.712Z,57.87
2019-05-23T19:40:50.920Z,58.19
2019-05-23T19:43:23.153Z,58.29
2019-05-23T19:45:55.594Z,58.29
2019-05-23T19:48:27.765Z,59.06
2019-05-23T19:51:00.373Z,59.28
2019-05-23T19:53:33.439Z,59.80
2019-05-23T19:56:07.873Z,59.69
2019-05-23T19:58:40.923Z,59.87
2019-05-23T20:01:13.842Z,60.31
2019-05-23T20:03:47.289Z,60.85
2019-05-23T20:06:19.626Z,61.47
2019-05-23T20:08:51.902Z,61.69
2019-05-23T20:11:24.105Z,61.71
2019-05-23T20:13:56.148Z,61.48
2019-05-23T20:16:28.276Z,61.80
2019-05-23T20:19:00.454Z,62.24
2019-05-23T20:21:33.078Z,62.13
2019-05-23T20:24:05.290Z,61.80
2019-05-23T20:26:37.320Z,62.14
2019-05-23T20:29:09.516Z,62.48
2019-05-23T20:31:41.656Z,62.20
2019-05-23T20:34:13.902Z,62.60
2019-05-23T20:36:46.006Z,62.55
2019-05-23T20:39:19.342Z,63.55
2019-05-23T20:41:51.419Z,63.95
2019-05-23T20:44:23.479Z,64.30
2019-05-23T20:46:55.605Z,64.46
2019-05-23T20:49:27.664Z,63.84
2019-05-23T20:51:59.752Z,64.07
2019-05-23T20:54:33.642Z,64.40
2019-05-23T20:57:06.397Z,64.62
2019-05-23T20:59:38.983Z,64.50
2019-05-23T21:02:11.238Z,64.68
2019-05-23T21:04:43.433Z,65.06
2019-05-23T21:07:15.544Z,65.17
2019-05-23T21:09:47.622Z,65.54
2019-05-23T21:12:29.487Z,65.96
2019-05-23T21:14:54.428Z,66.16
2019-05-23T21:17:27.301Z,66.17
2019-05-23T21:19:59.357Z,66.00
2019-05-23T21:22:31.405Z,66.12
2019-05-23T21:25:03.679Z,66.61
2019-05-23T21:27:35.832Z,66.73
2019-05-23T21:30:08.058Z,66.81
2019-05-23T21:32:40.111Z,66.39
2019-05-23T21:35:12.165Z,66.49
2019-05-23T21:37:44.174Z,66.67
2019-05-23T21:40:30.853Z,66.91
2019-05-23T21:43:03.197Z,67.06
2019-05-23T21:45:35.256Z,66.75
2019-05-23T21:48:07.311Z,67.38
2019-05-23T21:50:40.317Z,67.67
2019-05-23T21:53:12.345Z,67.87
2019-05-23T21:55:44.368Z,67.65
2019-05-23T21:58:16.557Z,67.60
2019-05-23T22:01:25.102Z,67.54
2019-05-23T22:04:15.525Z,67.88
2019-05-23T22:06:55.431Z,68.18
2019-05-23T22:09:26.830Z,68.73
2019-05-23T22:11:59.977Z,69.04
2019-05-23T22:14:34.605Z,68.85
2019-05-23T22:17:06.617Z,68.71
2019-05-23T22:19:38.590Z,69.04
2019-05-23T22:22:10.609Z,69.25
2019-05-23T22:24:42.587Z,69.10
2019-05-23T22:27:15.110Z,69.14
2019-05-23T22:29:47.168Z,69.04
2019-05-23T22:32:20.772Z,68.96
2019-05-23T22:35:06.183Z,69.00
2019-05-23T22:37:38.180Z,69.59
2019-05-23T22:40:10.874Z,69.85
2019-05-23T22:42:43.005Z,70.28
2019-05-23T22:45:17.797Z,70.16
2019-05-23T22:47:50.056Z,70.32
2019-05-23T22:50:22.039Z,70.12
2019-05-23T22:52:54.030Z,70.22
2019-05-23T22:55:26.158Z,70.17
2019-05-23T22:57:58.271Z,70.51
2019-05-23T23:00:34.988Z,70.66
2019-05-23T23:03:07.104Z,70.61
2019-05-23T23:05:39.120Z,70.51
2019-05-23T23:08:11.258Z,70.43
2019-05-23T23:10:43.305Z,70.45
2019-05-23T23:13:15.537Z,70.53
2019-05-23T23:15:47.584Z,70.81
2019-05-23T23:18:19.627Z,71.16
2019-05-23T23:20:52.920Z,71.03
2019-05-23T23:23:24.961Z,71.29
2019-05-23T23:25:56.951Z,71.45
2019-05-23T23:28:29.010Z,71.55
2019-05-23T23:31:00.972Z,71.44
2019-05-23T23:33:33.042Z,71.73
2019-05-23T23:36:04.986Z,71.44
2019-05-23T23:38:37.002Z,71.40
2019-05-23T23:41:09.134Z,71.65
2019-05-23T23:43:58.026Z,72.12
2019-05-23T23:46:33.665Z,71.84
2019-05-23T23:49:24.236Z,72.15
2019-05-23T23:52:16.432Z,72.17
2019-05-23T23:55:07.062Z,71.88
2019-05-23T23:57:57.685Z,72.00
